sensor_id;sensor_type;location;lat;lon;timestamp;temperature;humidity
10296;DHT22;5193;51.032;6.356;2023-05-15T00:00:25;13.10;99.90
10296;DHT22;5193;51.032;6.356;2023-05-15T00:02:52;13.00;99.90
10296;DHT22;5193;51.032;6.356;2023-05-15T00:05:17;13.00;99.90
10296;DHT22;5193;51.032;6.356;2023-05-15T00:07:43;13.00;99.90
10296;DHT22;5193;51.032;6.356;2023-05-15T00:10:09;13.00;99.90
10296;DHT22;5193;51.032;6.356;2023-05-15T00:12:34;13.00;99.90
10296;DHT22;5193;51.032;6.356;2023-05-15T00:15:01;12.90;99.90
10296;DHT22;5193;51.032;6.356;2023-05-15T00:17:26;12.90;99.90
10296;DHT22;5193;51.032;6.356;2023-05-15T00:19:52;12.90;99.90
10296;DHT22;5193;51.032;6.356;2023-05-15T00:22:22;12.90;99.90
10296;DHT22;5193;51.032;6.356;2023-05-15T00:24:47;12.90;99.90
10296;DHT22;5193;51.032;6.356;2023-05-15T00:27:13;13.00;99.90
10296;DHT22;5193;51.032;6.356;2023-05-15T00:29:38;13.00;99.90
10296;DHT22;5193;51.032;6.356;2023-05-15T00:32:04;13.00;99.90
10296;DHT22;5193;51.032;6.356;2023-05-15T00:34:30;13.00;99.90
10296;DHT22;5193;51.032;6.356;2023-05-15T00:36:56;13.00;99.90
10296;DHT22;5193;51.032;6.356;2023-05-15T00:39:21;13.00;99.90
10296;DHT22;5193;51.032;6.356;2023-05-15T00:41:47;12.90;99.90
10296;DHT22;5193;51.032;6.356;2023-05-15T00:44:14;13.00;99.90
10296;DHT22;5193;51.032;6.356;2023-05-15T00:46:42;13.00;99.90
10296;DHT22;5193;51.032;6.356;2023-05-15T00:49:10;13.00;99.90
10296;DHT22;5193;51.032;6.356;2023-05-15T00:51:39;13.00;99.90
10296;DHT22;5193;51.032;6.356;2023-05-15T00:54:07;13.00;99.90
10296;DHT22;5193;51.032;6.356;2023-05-15T00:56:33;13.00;99.90
10296;DHT22;5193;51.032;6.356;2023-05-15T00:59:01;13.00;99.90
10296;DHT22;5193;51.032;6.356;2023-05-15T01:01:27;12.90;99.90
10296;DHT22;5193;51.032;6.356;2023-05-15T01:03:57;12.90;99.90
10296;DHT22;5193;51.032;6.356;2023-05-15T01:06:23;12.90;99.90
10296;DHT22;5193;51.032;6.356;2023-05-15T01:08:50;12.90;99.90
10296;DHT22;5193;51.032;6.356;2023-05-15T01:11:19;12.90;99.90
10296;DHT22;5193;51.032;6.356;2023-05-15T01:13:45;12.90;99.90
10296;DHT22;5193;51.032;6.356;2023-05-15T01:16:11;12.80;99.90
10296;DHT22;5193;51.032;6.356;2023-05-15T01:18:37;12.80;99.90
10296;DHT22;5193;51.032;6.356;2023-05-15T01:23:45;12.80;99.90
10296;DHT22;5193;51.032;6.356;2023-05-15T01:31:41;12.70;99.90
10296;DHT22;5193;51.032;6.356;2023-05-15T01:34:10;12.70;99.90
10296;DHT22;5193;51.032;6.356;2023-05-15T01:36:42;12.80;99.90
10296;DHT22;5193;51.032;6.356;2023-05-15T01:39:11;12.70;99.90
10296;DHT22;5193;51.032;6.356;2023-05-15T01:42:02;12.70;99.90
10296;DHT22;5193;51.032;6.356;2023-05-15T01:44:32;12.60;99.90
10296;DHT22;5193;51.032;6.356;2023-05-15T01:47:00;12.70;99.90
10296;DHT22;5193;51.032;6.356;2023-05-15T01:49:29;12.70;99.90
10296;DHT22;5193;51.032;6.356;2023-05-15T01:52:05;12.60;99.90
10296;DHT22;5193;51.032;6.356;2023-05-15T01:54:33;12.70;99.90
10296;DHT22;5193;51.032;6.356;2023-05-15T01:57:00;12.70;99.90
10296;DHT22;5193;51.032;6.356;2023-05-15T01:59:28;12.70;99.90
10296;DHT22;5193;51.032;6.356;2023-05-15T02:01:55;12.70;99.90
10296;DHT22;5193;51.032;6.356;2023-05-15T02:04:21;12.70;99.90
10296;DHT22;5193;51.032;6.356;2023-05-15T02:06:48;12.80;99.90
10296;DHT22;5193;51.032;6.356;2023-05-15T02:09:15;12.80;99.90
10296;DHT22;5193;51.032;6.356;2023-05-15T02:11:41;12.80;99.90
10296;DHT22;5193;51.032;6.356;2023-05-15T02:14:08;12.80;99.90
10296;DHT22;5193;51.032;6.356;2023-05-15T02:16:35;12.80;99.90
10296;DHT22;5193;51.032;6.356;2023-05-15T02:19:01;12.80;99.90
10296;DHT22;5193;51.032;6.356;2023-05-15T02:21:26;12.80;99.90
10296;DHT22;5193;51.032;6.356;2023-05-15T02:23:52;12.80;99.90
10296;DHT22;5193;51.032;6.356;2023-05-15T02:29:37;12.80;99.90
10296;DHT22;5193;51.032;6.356;2023-05-15T02:34:51;12.80;99.90
10296;DHT22;5193;51.032;6.356;2023-05-15T02:37:27;12.70;99.90
10296;DHT22;5193;51.032;6.356;2023-05-15T02:39:54;12.70;99.90
10296;DHT22;5193;51.032;6.356;2023-05-15T02:42:22;12.70;99.90
10296;DHT22;5193;51.032;6.356;2023-05-15T02:44:49;12.70;99.90
10296;DHT22;5193;51.032;6.356;2023-05-15T02:47:17;12.70;99.90
10296;DHT22;5193;51.032;6.356;2023-05-15T02:49:44;12.60;99.90
10296;DHT22;5193;51.032;6.356;2023-05-15T02:52:09;12.70;99.90
10296;DHT22;5193;51.032;6.356;2023-05-15T02:54:35;12.60;99.90
10296;DHT22;5193;51.032;6.356;2023-05-15T02:57:01;12.60;99.90
10296;DHT22;5193;51.032;6.356;2023-05-15T02:59:26;12.60;99.90
10296;DHT22;5193;51.032;6.356;2023-05-15T03:01:52;12.60;99.90
10296;DHT22;5193;51.032;6.356;2023-05-15T03:04:17;12.50;99.90
10296;DHT22;5193;51.032;6.356;2023-05-15T03:06:43;12.60;99.90
10296;DHT22;5193;51.032;6.356;2023-05-15T03:09:09;12.50;99.90
10296;DHT22;5193;51.032;6.356;2023-05-15T03:11:34;12.50;99.90
10296;DHT22;5193;51.032;6.356;2023-05-15T03:14:00;12.50;99.90
10296;DHT22;5193;51.032;6.356;2023-05-15T03:16:26;12.50;99.90
10296;DHT22;5193;51.032;6.356;2023-05-15T03:18:52;12.40;99.90
10296;DHT22;5193;51.032;6.356;2023-05-15T03:21:18;12.50;99.90
10296;DHT22;5193;51.032;6.356;2023-05-15T03:23:44;12.40;99.90
10296;DHT22;5193;51.032;6.356;2023-05-15T03:26:10;12.50;99.90
10296;DHT22;5193;51.032;6.356;2023-05-15T03:28:36;12.40;99.90
10296;DHT22;5193;51.032;6.356;2023-05-15T03:31:02;12.40;99.90
10296;DHT22;5193;51.032;6.356;2023-05-15T03:33:29;12.40;99.90
10296;DHT22;5193;51.032;6.356;2023-05-15T03:35:56;12.30;99.90
10296;DHT22;5193;51.032;6.356;2023-05-15T03:38:21;12.30;99.90
10296;DHT22;5193;51.032;6.356;2023-05-15T03:40:47;12.30;99.90
10296;DHT22;5193;51.032;6.356;2023-05-15T03:43:12;12.20;99.90
10296;DHT22;5193;51.032;6.356;2023-05-15T03:45:38;12.10;99.90
10296;DHT22;5193;51.032;6.356;2023-05-15T03:48:04;12.10;99.90
10296;DHT22;5193;51.032;6.356;2023-05-15T03:50:29;12.10;99.90
10296;DHT22;5193;51.032;6.356;2023-05-15T03:52:55;12.10;99.90
10296;DHT22;5193;51.032;6.356;2023-05-15T03:55:21;12.10;99.90
10296;DHT22;5193;51.032;6.356;2023-05-15T03:57:46;12.10;99.90
10296;DHT22;5193;51.032;6.356;2023-05-15T04:00:12;12.00;99.90
10296;DHT22;5193;51.032;6.356;2023-05-15T04:02:38;12.00;99.90
10296;DHT22;5193;51.032;6.356;2023-05-15T04:05:05;12.00;99.90
10296;DHT22;5193;51.032;6.356;2023-05-15T04:07:35;12.00;99.90
10296;DHT22;5193;51.032;6.356;2023-05-15T04:10:01;11.90;99.90
10296;DHT22;5193;51.032;6.356;2023-05-15T04:12:31;11.90;99.90
10296;DHT22;5193;51.032;6.356;2023-05-15T04:15:04;11.90;99.90
10296;DHT22;5193;51.032;6.356;2023-05-15T04:17:37;11.90;99.90
10296;DHT22;5193;51.032;6.356;2023-05-15T04:20:03;11.90;99.90
10296;DHT22;5193;51.032;6.356;2023-05-15T04:22:30;12.00;99.90
10296;DHT22;5193;51.032;6.356;2023-05-15T04:24:56;12.00;99.90
10296;DHT22;5193;51.032;6.356;2023-05-15T04:27:21;11.90;99.90
10296;DHT22;5193;51.032;6.356;2023-05-15T04:29:47;11.90;99.90
10296;DHT22;5193;51.032;6.356;2023-05-15T04:32:12;12.00;99.90
10296;DHT22;5193;51.032;6.356;2023-05-15T04:34:38;12.00;99.90
10296;DHT22;5193;51.032;6.356;2023-05-15T04:37:05;11.90;99.90
10296;DHT22;5193;51.032;6.356;2023-05-15T04:39:31;11.90;99.90
10296;DHT22;5193;51.032;6.356;2023-05-15T04:41:56;12.00;99.90
10296;DHT22;5193;51.032;6.356;2023-05-15T04:44:22;11.90;99.90
10296;DHT22;5193;51.032;6.356;2023-05-15T04:46:47;11.90;99.90
10296;DHT22;5193;51.032;6.356;2023-05-15T04:49:13;11.90;99.90
10296;DHT22;5193;51.032;6.356;2023-05-15T04:51:38;11.90;99.90
10296;DHT22;5193;51.032;6.356;2023-05-15T04:54:06;11.90;99.90
10296;DHT22;5193;51.032;6.356;2023-05-15T04:56:31;11.90;99.90
10296;DHT22;5193;51.032;6.356;2023-05-15T04:58:57;11.90;99.90
10296;DHT22;5193;51.032;6.356;2023-05-15T05:01:23;11.90;99.90
10296;DHT22;5193;51.032;6.356;2023-05-15T05:03:48;11.90;99.90
10296;DHT22;5193;51.032;6.356;2023-05-15T05:06:14;11.90;99.90
10296;DHT22;5193;51.032;6.356;2023-05-15T05:08:40;12.00;99.90
10296;DHT22;5193;51.032;6.356;2023-05-15T05:11:06;12.00;99.90
10296;DHT22;5193;51.032;6.356;2023-05-15T05:13:31;12.00;99.90
10296;DHT22;5193;51.032;6.356;2023-05-15T05:15:57;12.00;99.90
10296;DHT22;5193;51.032;6.356;2023-05-15T05:18:22;12.00;99.90
10296;DHT22;5193;51.032;6.356;2023-05-15T05:20:48;12.00;99.90
10296;DHT22;5193;51.032;6.356;2023-05-15T05:23:14;12.00;99.90
10296;DHT22;5193;51.032;6.356;2023-05-15T05:25:40;12.00;99.90
10296;DHT22;5193;51.032;6.356;2023-05-15T05:28:06;11.90;99.90
10296;DHT22;5193;51.032;6.356;2023-05-15T05:30:31;12.00;99.90
10296;DHT22;5193;51.032;6.356;2023-05-15T05:32:57;11.90;99.90
10296;DHT22;5193;51.032;6.356;2023-05-15T05:35:22;11.90;99.90
10296;DHT22;5193;51.032;6.356;2023-05-15T05:37:48;12.00;99.90
10296;DHT22;5193;51.032;6.356;2023-05-15T05:40:13;12.00;99.90
10296;DHT22;5193;51.032;6.356;2023-05-15T05:42:40;12.00;99.90
10296;DHT22;5193;51.032;6.356;2023-05-15T05:45:06;12.00;99.90
10296;DHT22;5193;51.032;6.356;2023-05-15T05:47:31;12.00;99.90
10296;DHT22;5193;51.032;6.356;2023-05-15T05:49:57;12.00;99.90
10296;DHT22;5193;51.032;6.356;2023-05-15T05:52:22;12.00;99.90
10296;DHT22;5193;51.032;6.356;2023-05-15T05:54:48;12.00;99.90
10296;DHT22;5193;51.032;6.356;2023-05-15T05:57:14;12.00;99.90
10296;DHT22;5193;51.032;6.356;2023-05-15T05:59:39;12.00;99.90
10296;DHT22;5193;51.032;6.356;2023-05-15T06:02:05;12.00;99.90
10296;DHT22;5193;51.032;6.356;2023-05-15T06:04:32;12.00;99.90
10296;DHT22;5193;51.032;6.356;2023-05-15T06:06:58;12.00;99.90
10296;DHT22;5193;51.032;6.356;2023-05-15T06:09:24;12.00;99.90
10296;DHT22;5193;51.032;6.356;2023-05-15T06:11:49;12.10;99.90
10296;DHT22;5193;51.032;6.356;2023-05-15T06:14:15;12.20;99.90
10296;DHT22;5193;51.032;6.356;2023-05-15T06:16:40;12.20;99.90
10296;DHT22;5193;51.032;6.356;2023-05-15T06:19:06;12.20;99.90
10296;DHT22;5193;51.032;6.356;2023-05-15T06:21:32;12.20;99.90
10296;DHT22;5193;51.032;6.356;2023-05-15T06:23:58;12.30;99.90
10296;DHT22;5193;51.032;6.356;2023-05-15T06:26:23;12.30;99.90
10296;DHT22;5193;51.032;6.356;2023-05-15T06:28:50;12.30;99.90
10296;DHT22;5193;51.032;6.356;2023-05-15T06:31:15;12.40;99.90
10296;DHT22;5193;51.032;6.356;2023-05-15T06:33:42;12.40;99.90
10296;DHT22;5193;51.032;6.356;2023-05-15T06:36:07;12.50;99.90
10296;DHT22;5193;51.032;6.356;2023-05-15T06:38:33;12.50;99.90
10296;DHT22;5193;51.032;6.356;2023-05-15T06:40:58;12.70;99.90
10296;DHT22;5193;51.032;6.356;2023-05-15T06:43:24;12.70;99.90
10296;DHT22;5193;51.032;6.356;2023-05-15T06:45:49;12.70;99.90
10296;DHT22;5193;51.032;6.356;2023-05-15T06:48:15;12.80;99.90
10296;DHT22;5193;51.032;6.356;2023-05-15T06:50:41;12.80;99.90
10296;DHT22;5193;51.032;6.356;2023-05-15T06:53:06;12.80;99.90
10296;DHT22;5193;51.032;6.356;2023-05-15T06:55:32;12.90;99.90
10296;DHT22;5193;51.032;6.356;2023-05-15T06:57:59;12.90;99.90
10296;DHT22;5193;51.032;6.356;2023-05-15T07:00:24;13.00;99.90
10296;DHT22;5193;51.032;6.356;2023-05-15T07:02:50;13.00;99.90
10296;DHT22;5193;51.032;6.356;2023-05-15T07:05:16;13.00;99.90
10296;DHT22;5193;51.032;6.356;2023-05-15T07:07:41;13.00;99.90
10296;DHT22;5193;51.032;6.356;2023-05-15T07:10:08;13.00;99.90
10296;DHT22;5193;51.032;6.356;2023-05-15T07:12:33;13.00;99.90
10296;DHT22;5193;51.032;6.356;2023-05-15T07:14:59;13.00;99.90
10296;DHT22;5193;51.032;6.356;2023-05-15T07:17:25;13.20;99.90
10296;DHT22;5193;51.032;6.356;2023-05-15T07:19:50;13.20;99.90
10296;DHT22;5193;51.032;6.356;2023-05-15T07:22:16;13.30;99.90
10296;DHT22;5193;51.032;6.356;2023-05-15T07:24:41;13.50;99.90
10296;DHT22;5193;51.032;6.356;2023-05-15T07:27:07;13.70;99.90
10296;DHT22;5193;51.032;6.356;2023-05-15T07:29:32;13.80;99.90
10296;DHT22;5193;51.032;6.356;2023-05-15T07:31:58;13.80;99.90
10296;DHT22;5193;51.032;6.356;2023-05-15T07:34:24;13.90;99.90
10296;DHT22;5193;51.032;6.356;2023-05-15T07:36:49;14.10;99.90
10296;DHT22;5193;51.032;6.356;2023-05-15T07:39:15;14.20;99.90
10296;DHT22;5193;51.032;6.356;2023-05-15T07:41:41;14.20;99.90
10296;DHT22;5193;51.032;6.356;2023-05-15T07:44:06;14.30;99.90
10296;DHT22;5193;51.032;6.356;2023-05-15T07:46:33;14.40;99.90
10296;DHT22;5193;51.032;6.356;2023-05-15T07:48:58;14.50;99.90
10296;DHT22;5193;51.032;6.356;2023-05-15T07:51:24;14.70;99.90
10296;DHT22;5193;51.032;6.356;2023-05-15T07:53:49;14.70;99.90
10296;DHT22;5193;51.032;6.356;2023-05-15T07:56:15;14.70;99.90
10296;DHT22;5193;51.032;6.356;2023-05-15T07:58:41;14.70;99.90
10296;DHT22;5193;51.032;6.356;2023-05-15T08:01:06;14.80;99.90
10296;DHT22;5193;51.032;6.356;2023-05-15T08:03:32;15.00;99.90
10296;DHT22;5193;51.032;6.356;2023-05-15T08:05:58;15.00;99.90
10296;DHT22;5193;51.032;6.356;2023-05-15T08:08:24;15.10;99.90
10296;DHT22;5193;51.032;6.356;2023-05-15T08:10:50;15.10;99.90
10296;DHT22;5193;51.032;6.356;2023-05-15T08:13:15;15.10;99.90
10296;DHT22;5193;51.032;6.356;2023-05-15T08:15:41;15.10;99.90
10296;DHT22;5193;51.032;6.356;2023-05-15T08:18:08;15.10;99.90
10296;DHT22;5193;51.032;6.356;2023-05-15T08:20:34;15.30;99.90
10296;DHT22;5193;51.032;6.356;2023-05-15T08:23:00;15.20;99.90
10296;DHT22;5193;51.032;6.356;2023-05-15T08:25:25;15.20;99.90
10296;DHT22;5193;51.032;6.356;2023-05-15T08:27:51;15.20;99.90
10296;DHT22;5193;51.032;6.356;2023-05-15T08:30:17;15.30;99.90
10296;DHT22;5193;51.032;6.356;2023-05-15T08:32:42;15.40;99.90
10296;DHT22;5193;51.032;6.356;2023-05-15T08:35:10;15.50;99.90
10296;DHT22;5193;51.032;6.356;2023-05-15T08:37:36;15.70;99.90
10296;DHT22;5193;51.032;6.356;2023-05-15T08:40:02;15.80;99.90
10296;DHT22;5193;51.032;6.356;2023-05-15T08:44:59;16.10;99.90
10296;DHT22;5193;51.032;6.356;2023-05-15T08:47:27;16.30;99.90
10296;DHT22;5193;51.032;6.356;2023-05-15T08:52:32;16.50;99.90
10296;DHT22;5193;51.032;6.356;2023-05-15T08:54:58;16.60;99.90
10296;DHT22;5193;51.032;6.356;2023-05-15T08:57:25;16.70;99.90
10296;DHT22;5193;51.032;6.356;2023-05-15T08:59:51;16.70;99.90
10296;DHT22;5193;51.032;6.356;2023-05-15T09:02:18;16.70;99.90
10296;DHT22;5193;51.032;6.356;2023-05-15T09:04:44;16.70;99.90
10296;DHT22;5193;51.032;6.356;2023-05-15T09:07:11;16.70;99.90
10296;DHT22;5193;51.032;6.356;2023-05-15T09:09:37;16.90;99.90
10296;DHT22;5193;51.032;6.356;2023-05-15T09:12:04;17.10;99.90
10296;DHT22;5193;51.032;6.356;2023-05-15T09:14:31;17.30;99.90
10296;DHT22;5193;51.032;6.356;2023-05-15T09:16:57;17.50;99.90
10296;DHT22;5193;51.032;6.356;2023-05-15T09:19:23;17.50;99.90
10296;DHT22;5193;51.032;6.356;2023-05-15T09:21:49;17.50;99.90
10296;DHT22;5193;51.032;6.356;2023-05-15T09:24:16;17.60;99.90
10296;DHT22;5193;51.032;6.356;2023-05-15T09:26:43;17.70;99.90
10296;DHT22;5193;51.032;6.356;2023-05-15T09:29:09;17.90;99.90
10296;DHT22;5193;51.032;6.356;2023-05-15T09:31:35;18.00;99.90
10296;DHT22;5193;51.032;6.356;2023-05-15T09:34:01;18.10;99.90
10296;DHT22;5193;51.032;6.356;2023-05-15T09:36:29;18.10;99.90
10296;DHT22;5193;51.032;6.356;2023-05-15T09:38:59;18.20;99.90
10296;DHT22;5193;51.032;6.356;2023-05-15T09:41:26;18.20;99.90
10296;DHT22;5193;51.032;6.356;2023-05-15T09:43:53;18.10;99.90
10296;DHT22;5193;51.032;6.356;2023-05-15T09:46:21;18.20;99.90
10296;DHT22;5193;51.032;6.356;2023-05-15T09:48:47;18.30;99.90
10296;DHT22;5193;51.032;6.356;2023-05-15T09:51:17;18.30;99.90
10296;DHT22;5193;51.032;6.356;2023-05-15T09:53:50;18.20;99.90
10296;DHT22;5193;51.032;6.356;2023-05-15T09:56:17;18.20;99.90
10296;DHT22;5193;51.032;6.356;2023-05-15T09:58:53;18.00;99.90
10296;DHT22;5193;51.032;6.356;2023-05-15T10:01:20;17.90;99.90
10296;DHT22;5193;51.032;6.356;2023-05-15T10:04:00;18.00;99.90
10296;DHT22;5193;51.032;6.356;2023-05-15T10:06:26;18.20;99.90
10296;DHT22;5193;51.032;6.356;2023-05-15T10:08:53;18.40;99.90
10296;DHT22;5193;51.032;6.356;2023-05-15T10:11:19;18.50;99.90
10296;DHT22;5193;51.032;6.356;2023-05-15T10:13:46;18.50;99.90
10296;DHT22;5193;51.032;6.356;2023-05-15T10:16:13;18.60;99.90
10296;DHT22;5193;51.032;6.356;2023-05-15T10:18:40;18.60;99.90
10296;DHT22;5193;51.032;6.356;2023-05-15T10:21:08;18.70;99.90
10296;DHT22;5193;51.032;6.356;2023-05-15T10:23:35;18.80;99.90
10296;DHT22;5193;51.032;6.356;2023-05-15T10:26:10;19.00;99.90
10296;DHT22;5193;51.032;6.356;2023-05-15T10:28:38;19.20;99.90
10296;DHT22;5193;51.032;6.356;2023-05-15T10:31:04;19.40;99.90
10296;DHT22;5193;51.032;6.356;2023-05-15T10:33:32;19.50;99.90
10296;DHT22;5193;51.032;6.356;2023-05-15T10:35:58;19.60;99.90
10296;DHT22;5193;51.032;6.356;2023-05-15T10:38:25;19.70;99.90
10296;DHT22;5193;51.032;6.356;2023-05-15T10:40:51;19.80;99.90
10296;DHT22;5193;51.032;6.356;2023-05-15T10:43:19;20.00;99.90
10296;DHT22;5193;51.032;6.356;2023-05-15T10:45:45;19.80;99.90
10296;DHT22;5193;51.032;6.356;2023-05-15T10:48:13;19.80;99.90
10296;DHT22;5193;51.032;6.356;2023-05-15T10:50:39;19.90;99.90
10296;DHT22;5193;51.032;6.356;2023-05-15T10:53:04;19.90;99.90
10296;DHT22;5193;51.032;6.356;2023-05-15T10:55:31;19.70;99.90
10296;DHT22;5193;51.032;6.356;2023-05-15T10:57:56;19.70;99.90
10296;DHT22;5193;51.032;6.356;2023-05-15T11:02:48;19.60;99.90
10296;DHT22;5193;51.032;6.356;2023-05-15T11:05:15;19.60;99.90
10296;DHT22;5193;51.032;6.356;2023-05-15T11:07:40;19.70;99.90
10296;DHT22;5193;51.032;6.356;2023-05-15T11:10:35;19.90;99.90
10296;DHT22;5193;51.032;6.356;2023-05-15T11:13:01;20.00;99.90
10296;DHT22;5193;51.032;6.356;2023-05-15T11:15:41;20.30;99.90
10296;DHT22;5193;51.032;6.356;2023-05-15T11:18:07;20.50;99.90
10296;DHT22;5193;51.032;6.356;2023-05-15T11:20:39;20.70;99.90
10296;DHT22;5193;51.032;6.356;2023-05-15T11:23:05;20.60;99.90
10296;DHT22;5193;51.032;6.356;2023-05-15T11:25:34;20.70;99.90
10296;DHT22;5193;51.032;6.356;2023-05-15T11:28:04;20.80;99.90
10296;DHT22;5193;51.032;6.356;2023-05-15T11:30:39;20.80;99.90
10296;DHT22;5193;51.032;6.356;2023-05-15T11:33:07;20.90;99.90
10296;DHT22;5193;51.032;6.356;2023-05-15T11:35:36;20.80;99.90
10296;DHT22;5193;51.032;6.356;2023-05-15T11:40:55;20.80;99.90
10296;DHT22;5193;51.032;6.356;2023-05-15T11:46:03;20.90;99.90
10296;DHT22;5193;51.032;6.356;2023-05-15T11:48:38;21.00;99.90
10296;DHT22;5193;51.032;6.356;2023-05-15T11:51:04;21.00;99.90
10296;DHT22;5193;51.032;6.356;2023-05-15T11:53:38;21.00;99.90
10296;DHT22;5193;51.032;6.356;2023-05-15T11:56:04;21.00;99.90
10296;DHT22;5193;51.032;6.356;2023-05-15T11:58:30;20.90;99.90
10296;DHT22;5193;51.032;6.356;2023-05-15T12:00:56;21.00;99.90
10296;DHT22;5193;51.032;6.356;2023-05-15T12:03:31;21.10;99.90
10296;DHT22;5193;51.032;6.356;2023-05-15T12:05:57;21.20;99.90
10296;DHT22;5193;51.032;6.356;2023-05-15T12:08:23;21.40;99.90
10296;DHT22;5193;51.032;6.356;2023-05-15T12:10:48;21.50;99.90
10296;DHT22;5193;51.032;6.356;2023-05-15T12:13:16;21.60;99.90
10296;DHT22;5193;51.032;6.356;2023-05-15T12:15:44;21.70;99.90
10296;DHT22;5193;51.032;6.356;2023-05-15T12:18:10;21.70;99.90
10296;DHT22;5193;51.032;6.356;2023-05-15T12:20:37;21.80;99.90
10296;DHT22;5193;51.032;6.356;2023-05-15T12:23:05;21.70;99.90
10296;DHT22;5193;51.032;6.356;2023-05-15T12:25:35;21.70;99.90
10296;DHT22;5193;51.032;6.356;2023-05-15T12:28:03;21.50;99.90
10296;DHT22;5193;51.032;6.356;2023-05-15T12:30:33;21.50;99.90
10296;DHT22;5193;51.032;6.356;2023-05-15T12:33:05;21.50;99.90
10296;DHT22;5193;51.032;6.356;2023-05-15T12:35:44;21.50;99.90
10296;DHT22;5193;51.032;6.356;2023-05-15T12:38:14;21.50;99.90
10296;DHT22;5193;51.032;6.356;2023-05-15T12:40:43;21.80;99.90
10296;DHT22;5193;51.032;6.356;2023-05-15T12:43:12;22.10;99.90
10296;DHT22;5193;51.032;6.356;2023-05-15T12:45:38;22.30;99.90
10296;DHT22;5193;51.032;6.356;2023-05-15T12:48:06;22.50;99.90
10296;DHT22;5193;51.032;6.356;2023-05-15T12:50:33;22.60;99.90
10296;DHT22;5193;51.032;6.356;2023-05-15T12:53:03;22.60;99.90
10296;DHT22;5193;51.032;6.356;2023-05-15T12:55:32;22.50;99.90
10296;DHT22;5193;51.032;6.356;2023-05-15T12:58:03;22.30;99.90
10296;DHT22;5193;51.032;6.356;2023-05-15T13:00:33;22.30;99.90
10296;DHT22;5193;51.032;6.356;2023-05-15T13:03:00;22.20;99.90
10296;DHT22;5193;51.032;6.356;2023-05-15T13:05:27;21.90;99.90
10296;DHT22;5193;51.032;6.356;2023-05-15T13:07:53;21.50;99.90
10296;DHT22;5193;51.032;6.356;2023-05-15T13:10:21;21.20;99.90
10296;DHT22;5193;51.032;6.356;2023-05-15T13:12:53;20.90;99.90
10296;DHT22;5193;51.032;6.356;2023-05-15T13:15:31;20.90;99.90
10296;DHT22;5193;51.032;6.356;2023-05-15T13:20:32;20.90;99.90
10296;DHT22;5193;51.032;6.356;2023-05-15T13:23:00;20.80;99.90
10296;DHT22;5193;51.032;6.356;2023-05-15T13:25:25;20.90;99.90
10296;DHT22;5193;51.032;6.356;2023-05-15T13:27:51;20.90;99.90
10296;DHT22;5193;51.032;6.356;2023-05-15T13:30:17;20.80;99.90
10296;DHT22;5193;51.032;6.356;2023-05-15T13:32:43;20.60;99.90
10296;DHT22;5193;51.032;6.356;2023-05-15T13:35:09;20.60;99.90
10296;DHT22;5193;51.032;6.356;2023-05-15T13:37:36;20.50;99.90
10296;DHT22;5193;51.032;6.356;2023-05-15T13:40:03;20.50;99.90
10296;DHT22;5193;51.032;6.356;2023-05-15T13:42:34;20.60;99.90
10296;DHT22;5193;51.032;6.356;2023-05-15T13:45:01;20.60;99.90
10296;DHT22;5193;51.032;6.356;2023-05-15T13:47:27;20.60;99.90
10296;DHT22;5193;51.032;6.356;2023-05-15T13:49:52;20.70;99.90
10296;DHT22;5193;51.032;6.356;2023-05-15T13:52:18;20.60;99.90
10296;DHT22;5193;51.032;6.356;2023-05-15T13:54:44;20.60;99.90
10296;DHT22;5193;51.032;6.356;2023-05-15T13:57:09;20.50;99.90
10296;DHT22;5193;51.032;6.356;2023-05-15T13:59:35;20.40;99.90
10296;DHT22;5193;51.032;6.356;2023-05-15T14:02:00;20.50;99.90
10296;DHT22;5193;51.032;6.356;2023-05-15T14:04:26;20.40;99.90
10296;DHT22;5193;51.032;6.356;2023-05-15T14:06:51;20.30;99.90
10296;DHT22;5193;51.032;6.356;2023-05-15T14:09:17;20.40;99.90
10296;DHT22;5193;51.032;6.356;2023-05-15T14:11:42;20.40;99.90
10296;DHT22;5193;51.032;6.356;2023-05-15T14:14:08;20.40;99.90
10296;DHT22;5193;51.032;6.356;2023-05-15T14:16:33;20.20;99.90
10296;DHT22;5193;51.032;6.356;2023-05-15T14:18:59;20.20;99.90
10296;DHT22;5193;51.032;6.356;2023-05-15T14:21:25;20.20;99.90
10296;DHT22;5193;51.032;6.356;2023-05-15T14:23:50;20.10;99.90
10296;DHT22;5193;51.032;6.356;2023-05-15T14:26:16;20.00;99.90
10296;DHT22;5193;51.032;6.356;2023-05-15T14:28:41;19.90;99.90
10296;DHT22;5193;51.032;6.356;2023-05-15T14:31:07;19.80;99.90
10296;DHT22;5193;51.032;6.356;2023-05-15T14:33:33;19.50;99.90
10296;DHT22;5193;51.032;6.356;2023-05-15T14:35:58;19.40;99.90
10296;DHT22;5193;51.032;6.356;2023-05-15T14:38:25;19.40;99.90
10296;DHT22;5193;51.032;6.356;2023-05-15T14:40:50;19.40;99.90
10296;DHT22;5193;51.032;6.356;2023-05-15T14:43:16;19.40;99.90
10296;DHT22;5193;51.032;6.356;2023-05-15T14:45:41;19.40;99.90
10296;DHT22;5193;51.032;6.356;2023-05-15T14:48:07;19.40;99.90
10296;DHT22;5193;51.032;6.356;2023-05-15T14:50:33;19.40;99.90
10296;DHT22;5193;51.032;6.356;2023-05-15T14:52:59;19.30;99.90
10296;DHT22;5193;51.032;6.356;2023-05-15T14:55:24;19.20;99.90
10296;DHT22;5193;51.032;6.356;2023-05-15T14:57:50;19.00;99.90
10296;DHT22;5193;51.032;6.356;2023-05-15T15:00:16;18.90;99.90
10296;DHT22;5193;51.032;6.356;2023-05-15T15:02:42;18.90;99.90
10296;DHT22;5193;51.032;6.356;2023-05-15T15:05:08;18.70;99.90
10296;DHT22;5193;51.032;6.356;2023-05-15T15:07:57;18.80;99.90
10296;DHT22;5193;51.032;6.356;2023-05-15T15:10:23;18.60;99.90
10296;DHT22;5193;51.032;6.356;2023-05-15T15:12:50;18.40;99.90
10296;DHT22;5193;51.032;6.356;2023-05-15T15:15:16;18.40;99.90
10296;DHT22;5193;51.032;6.356;2023-05-15T15:17:41;18.40;99.90
10296;DHT22;5193;51.032;6.356;2023-05-15T15:20:07;18.30;99.90
10296;DHT22;5193;51.032;6.356;2023-05-15T15:22:33;18.30;99.90
10296;DHT22;5193;51.032;6.356;2023-05-15T15:24:58;18.30;99.90
10296;DHT22;5193;51.032;6.356;2023-05-15T15:27:24;18.30;99.90
10296;DHT22;5193;51.032;6.356;2023-05-15T15:29:49;18.30;99.90
10296;DHT22;5193;51.032;6.356;2023-05-15T15:32:15;18.40;99.90
10296;DHT22;5193;51.032;6.356;2023-05-15T15:34:40;18.40;99.90
10296;DHT22;5193;51.032;6.356;2023-05-15T15:37:06;18.30;99.90
10296;DHT22;5193;51.032;6.356;2023-05-15T15:39:32;18.20;99.90
10296;DHT22;5193;51.032;6.356;2023-05-15T15:41:57;18.10;99.90
10296;DHT22;5193;51.032;6.356;2023-05-15T15:44:23;18.10;99.90
10296;DHT22;5193;51.032;6.356;2023-05-15T15:46:48;18.00;99.90
10296;DHT22;5193;51.032;6.356;2023-05-15T15:49:14;18.00;99.90
10296;DHT22;5193;51.032;6.356;2023-05-15T15:51:40;18.00;99.90
10296;DHT22;5193;51.032;6.356;2023-05-15T15:54:05;18.00;99.90
10296;DHT22;5193;51.032;6.356;2023-05-15T15:56:31;18.20;99.90
10296;DHT22;5193;51.032;6.356;2023-05-15T15:58:57;18.20;99.90
10296;DHT22;5193;51.032;6.356;2023-05-15T16:01:22;18.20;99.90
10296;DHT22;5193;51.032;6.356;2023-05-15T16:03:48;18.30;99.90
10296;DHT22;5193;51.032;6.356;2023-05-15T16:06:14;18.50;99.90
10296;DHT22;5193;51.032;6.356;2023-05-15T16:08:39;18.50;99.90
10296;DHT22;5193;51.032;6.356;2023-05-15T16:11:05;18.50;99.90